createdAt,value
2023-11-05T00:00:39.478Z,7.74
2023-11-05T00:03:06.287Z,7.42
2023-11-05T00:05:33.012Z,7.56
2023-11-05T00:08:00.420Z,7.47
2023-11-05T00:10:27.157Z,7.63
2023-11-05T00:12:53.856Z,7.38
2023-11-05T00:15:20.564Z,7.53
2023-11-05T00:17:47.279Z,7.34
2023-11-05T00:20:14.999Z,7.28
2023-11-05T00:22:41.809Z,7.36
2023-11-05T00:25:09.494Z,7.70
2023-11-05T00:27:38.094Z,7.86
2023-11-05T00:30:05.574Z,7.90
2023-11-05T00:32:32.464Z,7.81
2023-11-05T00:34:59.242Z,7.73
2023-11-05T00:37:27.034Z,7.60
2023-11-05T00:39:53.718Z,7.37
2023-11-05T00:42:20.505Z,7.36
2023-11-05T00:44:47.203Z,7.33
2023-11-05T00:47:13.900Z,7.15
2023-11-05T00:49:40.708Z,6.61
2023-11-05T00:52:07.420Z,6.74
2023-11-05T00:54:34.193Z,6.73
2023-11-05T00:57:00.977Z,6.72
2023-11-05T00:59:27.691Z,6.38
2023-11-05T01:01:54.414Z,6.30
2023-11-05T01:04:21.254Z,6.42
2023-11-05T01:06:48.116Z,6.15
2023-11-05T01:09:14.716Z,5.96
2023-11-05T01:11:41.894Z,6.03
2023-11-05T01:14:08.651Z,6.10
2023-11-05T01:16:35.434Z,5.90
2023-11-05T01:19:02.241Z,5.89
2023-11-05T01:21:29.014Z,6.00
2023-11-05T01:23:55.774Z,5.79
2023-11-05T01:26:22.509Z,6.03
2023-11-05T01:28:50.097Z,5.87
2023-11-05T01:31:17.185Z,5.69
2023-11-05T01:33:44.573Z,5.99
2023-11-05T01:36:11.607Z,5.74
2023-11-05T01:38:38.344Z,5.94
2023-11-05T01:41:05.283Z,5.95
2023-11-05T01:43:32.111Z,5.90
2023-11-05T01:45:59.061Z,5.84
2023-11-05T01:48:25.844Z,5.88
2023-11-05T01:50:52.515Z,5.85
2023-11-05T01:53:19.199Z,5.66
2023-11-05T01:55:45.954Z,5.74
2023-11-05T01:58:12.679Z,5.46
2023-11-05T02:00:39.500Z,5.70
2023-11-05T02:03:06.205Z,5.81
2023-11-05T02:05:33.210Z,5.46
2023-11-05T02:08:00.018Z,5.38
2023-11-05T02:10:26.820Z,4.91
2023-11-05T02:12:59.503Z,5.11
2023-11-05T02:15:26.289Z,4.94
2023-11-05T02:17:53.032Z,4.76
2023-11-05T02:20:19.982Z,4.96
2023-11-05T02:22:47.863Z,5.19
2023-11-05T02:25:20.144Z,5.23
2023-11-05T02:27:49.232Z,5.60
2023-11-05T02:30:17.797Z,5.88
2023-11-05T02:32:44.518Z,6.05
2023-11-05T02:35:11.349Z,6.44
2023-11-05T02:37:38.230Z,6.16
2023-11-05T02:40:07.287Z,5.72
2023-11-05T02:42:34.069Z,5.35
2023-11-05T02:45:00.722Z,5.16
2023-11-05T02:47:27.486Z,4.97
2023-11-05T02:49:54.188Z,4.88
2023-11-05T02:52:20.892Z,4.88
2023-11-05T02:54:47.571Z,4.87
2023-11-05T02:57:14.176Z,5.09
2023-11-05T02:59:40.919Z,5.09
2023-11-05T03:02:07.667Z,5.16
2023-11-05T03:04:34.704Z,5.06
2023-11-05T03:07:01.923Z,5.15
2023-11-05T03:09:28.727Z,5.11
2023-11-05T03:11:55.628Z,5.48
2023-11-05T03:14:22.444Z,5.76
2023-11-05T03:16:49.647Z,5.78
2023-11-05T03:19:16.398Z,5.82
2023-11-05T03:21:43.197Z,5.83
2023-11-05T03:24:10.047Z,6.04
2023-11-05T03:26:36.922Z,5.60
2023-11-05T03:29:04.398Z,5.10
2023-11-05T03:31:32.378Z,5.20
2023-11-05T03:33:59.288Z,5.09
2023-11-05T03:36:26.059Z,4.91
2023-11-05T03:38:52.808Z,5.03
2023-11-05T03:41:19.464Z,5.05
2023-11-05T03:43:46.226Z,5.10
2023-11-05T03:46:14.606Z,4.96
2023-11-05T03:48:44.593Z,5.16
2023-11-05T03:51:15.150Z,5.29
2023-11-05T03:53:42.061Z,5.41
2023-11-05T03:56:09.602Z,5.88
2023-11-05T03:58:38.484Z,5.88
2023-11-05T04:01:05.734Z,5.87
2023-11-05T04:03:33.350Z,5.91
2023-11-05T04:06:00.246Z,5.84
2023-11-05T04:08:27.585Z,5.79
2023-11-05T04:10:54.688Z,5.93
2023-11-05T04:13:21.328Z,6.00
2023-11-05T04:15:48.027Z,5.62
2023-11-05T04:18:14.788Z,5.78
2023-11-05T04:20:41.835Z,5.87
2023-11-05T04:23:08.490Z,5.53
2023-11-05T04:25:35.257Z,5.50
2023-11-05T04:28:02.059Z,5.14
2023-11-05T04:30:28.741Z,4.59
2023-11-05T04:32:55.580Z,4.80
2023-11-05T04:35:22.351Z,4.63
2023-11-05T04:37:49.085Z,4.59
2023-11-05T04:40:15.926Z,4.38
2023-11-05T04:42:42.686Z,4.43
2023-11-05T04:45:11.006Z,4.30
2023-11-05T04:47:37.723Z,4.54
2023-11-05T04:50:04.747Z,4.69
2023-11-05T04:52:31.616Z,4.67
2023-11-05T04:55:00.513Z,4.56
2023-11-05T04:57:27.720Z,4.40
2023-11-05T04:59:54.429Z,4.62
2023-11-05T05:02:21.066Z,4.41
2023-11-05T05:04:48.384Z,4.25
2023-11-05T05:07:15.876Z,4.25
2023-11-05T05:09:42.826Z,4.40
2023-11-05T05:12:09.664Z,4.57
2023-11-05T05:14:36.437Z,4.78
2023-11-05T05:17:03.670Z,4.73
2023-11-05T05:19:30.432Z,4.80
2023-11-05T05:21:57.181Z,4.83
2023-11-05T05:24:24.906Z,5.08
2023-11-05T05:26:51.810Z,4.84
2023-11-05T05:29:18.486Z,5.05
2023-11-05T05:31:45.252Z,4.91
2023-11-05T05:34:12.060Z,5.05
2023-11-05T05:36:41.878Z,5.10
2023-11-05T05:39:08.767Z,5.05
2023-11-05T05:41:35.508Z,5.29
2023-11-05T05:44:02.307Z,5.28
2023-11-05T05:46:29.075Z,5.16
2023-11-05T05:48:55.999Z,5.16
2023-11-05T05:51:24.072Z,5.44
2023-11-05T05:53:51.106Z,5.05
2023-11-05T05:56:17.850Z,4.96
2023-11-05T05:58:44.694Z,5.07
2023-11-05T06:01:11.850Z,5.23
2023-11-05T06:03:38.758Z,5.07
2023-11-05T06:06:05.997Z,5.00
2023-11-05T06:08:32.800Z,5.03
2023-11-05T06:10:59.448Z,5.13
2023-11-05T06:13:26.534Z,4.73
2023-11-05T06:15:53.798Z,4.88
2023-11-05T06:18:21.354Z,5.03
2023-11-05T06:20:48.367Z,5.12
2023-11-05T06:23:15.003Z,5.45
2023-11-05T06:25:42.471Z,5.74
2023-11-05T06:28:09.558Z,5.74
2023-11-05T06:30:36.299Z,5.80
2023-11-05T06:33:03.092Z,5.87
2023-11-05T06:35:29.784Z,6.08
2023-11-05T06:37:56.440Z,6.31
2023-11-05T06:40:23.507Z,6.44
2023-11-05T06:42:50.350Z,6.29
2023-11-05T06:45:17.494Z,6.44
2023-11-05T06:47:44.333Z,6.75
2023-11-05T06:50:11.258Z,6.65
2023-11-05T06:52:40.758Z,6.74
2023-11-05T06:55:08.452Z,6.79
2023-11-05T06:57:38.369Z,6.91
2023-11-05T07:00:07.209Z,7.12
2023-11-05T07:02:37.009Z,7.20
2023-11-05T07:05:06.216Z,7.47
2023-11-05T07:07:33.222Z,7.64
2023-11-05T07:10:01.472Z,7.92
2023-11-05T07:12:28.614Z,8.06
2023-11-05T07:14:55.488Z,8.27
2023-11-05T07:17:22.351Z,8.41
2023-11-05T07:19:49.053Z,8.84
2023-11-05T07:22:15.978Z,9.01
2023-11-05T07:24:42.704Z,8.88
2023-11-05T07:27:09.801Z,9.42
2023-11-05T07:29:36.623Z,9.65
2023-11-05T07:32:04.082Z,10.03
2023-11-05T07:34:30.944Z,10.03
2023-11-05T07:36:58.394Z,10.52
2023-11-05T07:39:25.054Z,10.57
2023-11-05T07:41:51.878Z,10.60
2023-11-05T07:44:19.523Z,10.54
2023-11-05T07:46:46.278Z,10.79
2023-11-05T07:49:13.007Z,10.51
2023-11-05T07:51:39.796Z,10.84
2023-11-05T07:54:06.863Z,10.75
2023-11-05T07:56:33.688Z,11.00
2023-11-05T07:59:00.435Z,10.98
2023-11-05T08:01:27.185Z,11.00
2023-11-05T08:03:53.976Z,11.16
2023-11-05T08:06:20.652Z,11.24
2023-11-05T08:08:47.820Z,11.30
2023-11-05T08:11:14.530Z,11.49
2023-11-05T08:13:41.290Z,11.63
2023-11-05T08:16:08.498Z,11.86
2023-11-05T08:18:35.854Z,11.87
2023-11-05T08:21:03.998Z,11.96
2023-11-05T08:23:30.715Z,12.07
2023-11-05T08:25:57.836Z,12.36
2023-11-05T08:28:26.466Z,12.36
2023-11-05T08:30:54.386Z,12.44
2023-11-05T08:33:21.718Z,12.38
2023-11-05T08:35:48.692Z,12.17
2023-11-05T08:38:15.440Z,12.14
2023-11-05T08:40:42.308Z,12.52
2023-11-05T08:43:08.996Z,12.30
2023-11-05T08:45:45.498Z,12.47
2023-11-05T08:48:17.290Z,12.64
2023-11-05T08:50:44.325Z,12.16
2023-11-05T08:53:10.984Z,12.39
2023-11-05T08:55:38.246Z,12.77
2023-11-05T08:58:05.136Z,12.91
2023-11-05T09:00:36.347Z,13.43
2023-11-05T09:03:03.595Z,13.39
2023-11-05T09:05:30.294Z,13.20
2023-11-05T09:07:59.883Z,13.32
2023-11-05T09:10:28.030Z,13.57
2023-11-05T09:12:55.309Z,13.83
2023-11-05T09:15:22.166Z,14.16
2023-11-05T09:17:49.019Z,14.49
2023-11-05T09:20:15.849Z,14.61
2023-11-05T09:22:43.080Z,14.76
2023-11-05T09:25:10.270Z,14.77
2023-11-05T09:27:40.347Z,14.33
2023-11-05T09:30:13.283Z,14.22
2023-11-05T09:32:40.757Z,14.58
2023-11-05T09:35:08.958Z,14.56
2023-11-05T09:37:36.695Z,14.55
2023-11-05T09:40:04.309Z,15.26
2023-11-05T09:42:31.498Z,15.63
2023-11-05T09:44:59.354Z,15.60
2023-11-05T09:47:51.305Z,15.82
2023-11-05T09:50:18.078Z,15.48
2023-11-05T09:52:44.865Z,15.56
2023-11-05T09:55:11.588Z,15.61
2023-11-05T09:57:38.476Z,16.07
2023-11-05T10:00:15.629Z,16.17
2023-11-05T10:03:04.176Z,16.10
2023-11-05T10:05:38.717Z,15.74
2023-11-05T10:08:09.850Z,16.16
2023-11-05T10:10:40.868Z,15.86
2023-11-05T10:13:07.530Z,15.78
2023-11-05T10:15:35.028Z,15.88
2023-11-05T10:18:01.948Z,15.14
2023-11-05T10:20:31.253Z,15.23
2023-11-05T10:23:04.637Z,15.12
2023-11-05T10:25:31.650Z,15.04
2023-11-05T10:27:59.186Z,14.89
2023-11-05T10:30:27.079Z,14.81
2023-11-05T10:32:54.275Z,14.67
2023-11-05T10:35:22.274Z,14.89
2023-11-05T10:37:49.813Z,14.58
2023-11-05T10:40:17.844Z,14.88
2023-11-05T10:42:45.882Z,14.93
2023-11-05T10:45:16.463Z,14.99
2023-11-05T10:47:43.477Z,14.66
2023-11-05T10:50:13.216Z,14.76
2023-11-05T10:52:46.359Z,14.76
2023-11-05T10:55:13.401Z,14.91
2023-11-05T10:57:40.230Z,15.03
2023-11-05T11:00:12.284Z,15.02
2023-11-05T11:02:48.410Z,15.21
2023-11-05T11:05:21.296Z,15.02
2023-11-05T11:07:48.318Z,15.11
2023-11-05T11:10:21.372Z,15.39
2023-11-05T11:12:48.131Z,15.42
2023-11-05T11:15:34.478Z,15.31
2023-11-05T11:18:04.423Z,15.49
2023-11-05T11:20:32.974Z,15.37
2023-11-05T11:23:04.175Z,15.36
2023-11-05T11:25:34.602Z,15.46
2023-11-05T11:28:01.409Z,15.61
2023-11-05T11:30:28.115Z,15.68
2023-11-05T11:32:55.127Z,15.68
2023-11-05T11:35:22.325Z,15.56
2023-11-05T11:37:49.260Z,15.54
2023-11-05T11:40:16.529Z,15.59
2023-11-05T11:42:43.379Z,15.81
2023-11-05T11:45:10.954Z,15.97
2023-11-05T11:47:40.565Z,16.15
2023-11-05T11:50:08.233Z,16.45
2023-11-05T11:53:08.705Z,16.77
2023-11-05T11:55:35.551Z,16.21
2023-11-05T11:58:02.440Z,16.68
2023-11-05T12:00:29.238Z,16.93
2023-11-05T12:02:58.755Z,16.53
2023-11-05T12:05:25.497Z,16.73
2023-11-05T12:07:52.285Z,16.55
2023-11-05T12:10:20.174Z,16.69
2023-11-05T12:12:53.441Z,16.56
2023-11-05T12:15:20.639Z,16.34
2023-11-05T12:17:50.263Z,16.56
2023-11-05T12:20:17.053Z,16.40
2023-11-05T12:22:46.601Z,16.46
2023-11-05T12:25:13.615Z,16.84
2023-11-05T12:27:47.381Z,17.01
2023-11-05T12:30:20.347Z,16.93
2023-11-05T12:32:47.202Z,16.70
2023-11-05T12:35:13.848Z,16.56
2023-11-05T12:37:40.624Z,16.86
2023-11-05T12:40:07.911Z,17.00
2023-11-05T12:42:34.885Z,16.84
2023-11-05T12:45:02.801Z,16.84
2023-11-05T12:47:29.572Z,16.79
2023-11-05T12:49:57.458Z,16.60
2023-11-05T12:52:27.598Z,16.68
2023-11-05T12:54:54.344Z,16.62
2023-11-05T12:57:20.995Z,17.13
2023-11-05T12:59:47.783Z,17.30
2023-11-05T13:02:14.639Z,17.83
2023-11-05T13:04:41.658Z,18.09
2023-11-05T13:07:08.928Z,18.56
2023-11-05T13:09:35.777Z,19.07
2023-11-05T13:12:05.753Z,18.64
2023-11-05T13:14:32.667Z,18.71
2023-11-05T13:17:00.215Z,18.30
2023-11-05T13:19:27.074Z,18.34
2023-11-05T13:21:53.839Z,18.26
2023-11-05T13:24:20.618Z,18.14
2023-11-05T13:26:47.430Z,18.22
2023-11-05T13:29:14.096Z,18.44
2023-11-05T13:31:40.715Z,18.04
2023-11-05T13:34:07.532Z,18.12
2023-11-05T13:36:34.313Z,18.00
2023-11-05T13:39:02.137Z,18.23
2023-11-05T13:41:29.277Z,18.16
2023-11-05T13:43:56.144Z,17.88
2023-11-05T13:46:22.985Z,17.88
2023-11-05T13:48:50.473Z,17.85
2023-11-05T13:51:17.276Z,17.68
2023-11-05T13:53:43.983Z,17.67
2023-11-05T13:56:10.653Z,17.59
2023-11-05T13:58:38.146Z,17.41
2023-11-05T14:01:04.807Z,17.48
2023-11-05T14:03:31.510Z,17.22
2023-11-05T14:05:58.476Z,17.24
2023-11-05T14:08:25.331Z,17.25
2023-11-05T14:10:53.004Z,17.05
2023-11-05T14:13:19.762Z,16.95
2023-11-05T14:15:46.482Z,16.69
2023-11-05T14:18:13.300Z,17.18
2023-11-05T14:20:40.147Z,16.77
2023-11-05T14:23:12.575Z,16.88
2023-11-05T14:25:40.451Z,16.99
2023-11-05T14:28:07.274Z,16.90
2023-11-05T14:30:33.983Z,17.18
2023-11-05T14:33:01.907Z,16.87
2023-11-05T14:35:29.767Z,16.89
2023-11-05T14:37:56.904Z,16.61
2023-11-05T14:40:25.980Z,16.59
2023-11-05T14:42:57.409Z,16.77
2023-11-05T14:45:27.979Z,16.54
2023-11-05T14:47:56.358Z,16.76
2023-11-05T14:50:23.267Z,16.72
2023-11-05T14:52:50.096Z,16.68
2023-11-05T14:55:16.859Z,16.53
2023-11-05T14:57:43.626Z,16.61
2023-11-05T15:00:12.604Z,16.86
2023-11-05T15:02:41.368Z,16.92
2023-11-05T15:05:13.035Z,17.04
2023-11-05T15:07:41.170Z,17.06
2023-11-05T15:10:14.403Z,17.04
2023-11-05T15:12:41.700Z,16.81
2023-11-05T15:15:08.841Z,16.84
2023-11-05T15:17:36.742Z,16.85
2023-11-05T15:20:09.063Z,16.84
2023-11-05T15:22:35.939Z,16.88
2023-11-05T15:25:02.662Z,17.00
2023-11-05T15:27:29.515Z,16.96
2023-11-05T15:29:58.230Z,17.07
2023-11-05T15:32:26.113Z,16.73
2023-11-05T15:34:57.597Z,16.74
2023-11-05T15:37:24.305Z,17.03
2023-11-05T15:39:54.208Z,16.95
2023-11-05T15:42:21.170Z,16.71
2023-11-05T15:44:50.297Z,16.96
2023-11-05T15:47:17.531Z,16.70
2023-11-05T15:49:45.694Z,16.72
2023-11-05T15:52:12.519Z,16.78
2023-11-05T15:54:46.390Z,16.76
2023-11-05T15:57:13.219Z,16.46
2023-11-05T15:59:40.310Z,16.49
2023-11-05T16:02:08.554Z,16.30
2023-11-05T16:04:37.803Z,16.21
2023-11-05T16:07:04.880Z,16.33
2023-11-05T16:09:32.605Z,16.16
2023-11-05T16:12:00.211Z,16.22
2023-11-05T16:14:32.065Z,16.29
2023-11-05T16:17:01.613Z,16.42
2023-11-05T16:19:28.472Z,16.44
2023-11-05T16:21:55.228Z,16.30
2023-11-05T16:24:21.970Z,16.34
2023-11-05T16:26:48.821Z,16.30
2023-11-05T16:29:15.510Z,16.28
2023-11-05T16:31:42.246Z,16.37
2023-11-05T16:34:08.997Z,16.30
2023-11-05T16:36:36.984Z,16.19
2023-11-05T16:39:03.985Z,16.20
2023-11-05T16:41:31.914Z,16.22
2023-11-05T16:43:58.895Z,16.62
2023-11-05T16:46:25.716Z,16.47
2023-11-05T16:48:52.533Z,16.67
2023-11-05T16:51:20.015Z,16.65
2023-11-05T16:53:46.938Z,16.25
2023-11-05T16:56:13.781Z,16.07
2023-11-05T16:58:42.991Z,16.45
2023-11-05T17:01:14.146Z,16.11
2023-11-05T17:03:40.932Z,16.02
2023-11-05T17:06:07.860Z,15.97
2023-11-05T17:08:37.333Z,16.08
2023-11-05T17:11:05.466Z,16.26
2023-11-05T17:13:32.261Z,16.13
2023-11-05T17:15:59.010Z,16.18
2023-11-05T17:18:25.780Z,15.91
2023-11-05T17:20:52.670Z,16.22
2023-11-05T17:23:19.401Z,16.15
2023-11-05T17:25:46.114Z,16.25
2023-11-05T17:28:12.906Z,15.97
2023-11-05T17:30:39.655Z,16.01
2023-11-05T17:33:07.351Z,15.95
2023-11-05T17:35:34.124Z,16.01
2023-11-05T17:38:00.836Z,16.07
2023-11-05T17:40:28.705Z,16.16
2023-11-05T17:42:56.273Z,15.95
2023-11-05T17:45:23.137Z,15.81
2023-11-05T17:47:49.901Z,16.00
2023-11-05T17:50:16.811Z,15.88
2023-11-05T17:52:43.931Z,15.97
2023-11-05T17:55:11.249Z,15.73
2023-11-05T17:57:37.949Z,15.64
2023-11-05T18:00:05.579Z,15.89
2023-11-05T18:02:32.472Z,16.08
2023-11-05T18:04:59.283Z,15.91
2023-11-05T18:07:26.014Z,15.75
2023-11-05T18:09:52.737Z,15.92
2023-11-05T18:12:39.402Z,15.80
2023-11-05T18:15:07.102Z,15.65
2023-11-05T18:17:33.910Z,15.71
2023-11-05T18:20:00.810Z,15.67
2023-11-05T18:22:27.600Z,15.62
2023-11-05T18:24:54.282Z,15.49
2023-11-05T18:27:20.947Z,15.52
2023-11-05T18:29:47.648Z,15.42
2023-11-05T18:32:14.386Z,15.36
2023-11-05T18:34:41.128Z,15.52
2023-11-05T18:37:09.069Z,15.81
2023-11-05T18:39:35.856Z,15.47
2023-11-05T18:42:02.762Z,15.49
2023-11-05T18:44:29.866Z,15.74
2023-11-05T18:46:56.646Z,15.72
2023-11-05T18:49:23.746Z,15.60
2023-11-05T18:51:50.536Z,15.80
2023-11-05T18:54:17.848Z,15.85
2023-11-05T18:56:44.750Z,15.58
2023-11-05T18:59:11.436Z,15.58
2023-11-05T19:01:38.500Z,15.87
2023-11-05T19:04:05.644Z,15.91
2023-11-05T19:06:32.572Z,15.96
2023-11-05T19:08:59.239Z,15.91
2023-11-05T19:11:26.049Z,15.93
2023-11-05T19:14:02.722Z,15.97
2023-11-05T19:16:37.458Z,15.96
2023-11-05T19:19:04.185Z,15.80
2023-11-05T19:21:30.969Z,15.97
2023-11-05T19:23:57.639Z,15.93
2023-11-05T19:26:24.565Z,15.82
2023-11-05T19:28:51.333Z,16.07
2023-11-05T19:31:17.955Z,16.10
2023-11-05T19:33:44.748Z,15.91
2023-11-05T19:36:12.168Z,16.42
2023-11-05T19:38:38.903Z,16.34
2023-11-05T19:41:05.650Z,16.58
2023-11-05T19:43:32.344Z,16.53
2023-11-05T19:45:59.086Z,16.54
2023-11-05T19:48:25.775Z,16.45
2023-11-05T19:50:53.829Z,16.43
2023-11-05T19:53:20.590Z,16.58
2023-11-05T19:55:48.039Z,16.42
2023-11-05T19:58:14.711Z,16.97
2023-11-05T20:00:41.520Z,16.91
2023-11-05T20:03:08.317Z,16.83
2023-11-05T20:05:35.060Z,16.81
2023-11-05T20:08:02.003Z,16.64
2023-11-05T20:10:28.745Z,16.54
2023-11-05T20:12:56.086Z,16.60
2023-11-05T20:15:22.741Z,16.54
2023-11-05T20:17:49.448Z,16.74
2023-11-05T20:20:16.996Z,16.69
2023-11-05T20:22:43.864Z,16.83
2023-11-05T20:25:10.598Z,16.82
2023-11-05T20:27:37.924Z,16.76
2023-11-05T20:30:05.106Z,16.97
2023-11-05T20:32:32.646Z,16.92
2023-11-05T20:34:59.351Z,16.66
2023-11-05T20:37:26.229Z,16.63
2023-11-05T20:39:52.916Z,16.77
2023-11-05T20:42:20.848Z,16.72
2023-11-05T20:44:47.626Z,16.51
2023-11-05T20:47:14.393Z,16.76
2023-11-05T20:49:41.294Z,16.54
2023-11-05T20:52:07.985Z,16.64
2023-11-05T20:54:37.801Z,16.69
2023-11-05T20:57:05.570Z,16.88
2023-11-05T20:59:33.204Z,16.86
2023-11-05T21:02:00.212Z,16.76
2023-11-05T21:04:28.903Z,16.85
2023-11-05T21:06:55.662Z,16.65
2023-11-05T21:09:22.578Z,16.52
2023-11-05T21:11:50.011Z,16.52
2023-11-05T21:14:16.763Z,16.48
2023-11-05T21:16:43.560Z,16.42
2023-11-05T21:19:10.262Z,16.41
2023-11-05T21:21:37.007Z,16.45
2023-11-05T21:24:03.890Z,16.33
2023-11-05T21:26:30.549Z,16.12
2023-11-05T21:28:58.564Z,16.29
2023-11-05T21:31:25.571Z,16.12
2023-11-05T21:33:52.841Z,16.25
2023-11-05T21:36:19.574Z,16.21
2023-11-05T21:38:46.318Z,15.96
2023-11-05T21:41:19.994Z,16.26
2023-11-05T21:43:46.945Z,16.25
2023-11-05T21:46:14.824Z,16.22
2023-11-05T21:48:42.565Z,16.31
2023-11-05T21:51:09.337Z,16.30
2023-11-05T21:53:36.097Z,16.30
2023-11-05T21:56:02.925Z,16.03
2023-11-05T21:58:29.774Z,16.20
2023-11-05T22:00:56.513Z,16.08
2023-11-05T22:03:23.225Z,16.15
2023-11-05T22:05:50.114Z,16.08
2023-11-05T22:08:17.031Z,16.10
2023-11-05T22:10:43.804Z,15.97
2023-11-05T22:13:11.083Z,16.11
2023-11-05T22:15:37.776Z,16.03
2023-11-05T22:18:04.608Z,16.12
2023-11-05T22:20:31.408Z,16.02
2023-11-05T22:22:58.160Z,16.06
2023-11-05T22:25:24.939Z,16.04
2023-11-05T22:27:51.690Z,16.13
2023-11-05T22:30:18.641Z,16.08
2023-11-05T22:32:45.365Z,16.13
2023-11-05T22:35:12.157Z,16.03
2023-11-05T22:37:38.988Z,15.95
2023-11-05T22:40:07.228Z,16.01
2023-11-05T22:42:34.086Z,16.10
2023-11-05T22:45:00.793Z,16.03
2023-11-05T22:47:27.848Z,16.02
2023-11-05T22:49:54.667Z,16.09
2023-11-05T22:52:21.969Z,15.98
2023-11-05T22:54:48.724Z,16.11
2023-11-05T22:57:15.420Z,16.31
2023-11-05T22:59:42.453Z,16.10
2023-11-05T23:02:09.261Z,16.02
2023-11-05T23:04:36.850Z,15.29
2023-11-05T23:07:03.804Z,14.54
2023-11-05T23:09:30.896Z,13.96
2023-11-05T23:11:57.686Z,13.47
2023-11-05T23:14:24.473Z,13.35
2023-11-05T23:16:51.183Z,13.51
2023-11-05T23:19:19.490Z,13.23
2023-11-05T23:21:47.413Z,13.36
2023-11-05T23:24:14.214Z,13.36
2023-11-05T23:26:42.222Z,13.10
2023-11-05T23:29:13.701Z,13.15
2023-11-05T23:31:42.562Z,12.94
2023-11-05T23:34:12.090Z,13.01
2023-11-05T23:36:39.747Z,12.78
2023-11-05T23:39:08.665Z,12.77
2023-11-05T23:41:35.383Z,13.00
2023-11-05T23:44:02.238Z,13.03
2023-11-05T23:46:28.903Z,12.71
2023-11-05T23:48:55.605Z,12.73
2023-11-05T23:51:22.246Z,12.66
2023-11-05T23:53:48.957Z,12.63
2023-11-05T23:56:17.033Z,12.73
2023-11-05T23:58:44.761Z,12.61
